sensor_id;sensor_type;location;lat;lon;timestamp;temperature;humidity
2577;DHT22;1298;51.252;6.802;2023-05-14T00:01:37;14.00;99.90
2577;DHT22;1298;51.252;6.802;2023-05-14T00:04:23;13.90;99.90
2577;DHT22;1298;51.252;6.802;2023-05-14T00:07:08;13.90;99.90
2577;DHT22;1298;51.252;6.802;2023-05-14T00:09:54;13.80;99.90
2577;DHT22;1298;51.252;6.802;2023-05-14T00:12:39;13.70;99.90
2577;DHT22;1298;51.252;6.802;2023-05-14T00:15:24;13.70;99.90
2577;DHT22;1298;51.252;6.802;2023-05-14T00:18:10;13.70;99.90
2577;DHT22;1298;51.252;6.802;2023-05-14T00:20:57;13.60;99.90
2577;DHT22;1298;51.252;6.802;2023-05-14T00:23:42;13.70;99.90
2577;DHT22;1298;51.252;6.802;2023-05-14T00:26:27;13.70;99.90
2577;DHT22;1298;51.252;6.802;2023-05-14T00:29:12;13.60;99.90
2577;DHT22;1298;51.252;6.802;2023-05-14T00:31:57;13.60;99.90
2577;DHT22;1298;51.252;6.802;2023-05-14T00:34:42;13.50;99.90
2577;DHT22;1298;51.252;6.802;2023-05-14T00:37:29;13.50;99.90
2577;DHT22;1298;51.252;6.802;2023-05-14T00:40:14;13.40;99.90
2577;DHT22;1298;51.252;6.802;2023-05-14T00:43:00;13.30;99.90
2577;DHT22;1298;51.252;6.802;2023-05-14T00:45:45;13.30;99.90
2577;DHT22;1298;51.252;6.802;2023-05-14T00:48:31;13.30;99.90
2577;DHT22;1298;51.252;6.802;2023-05-14T00:51:17;13.30;99.90
2577;DHT22;1298;51.252;6.802;2023-05-14T00:54:04;13.30;99.90
2577;DHT22;1298;51.252;6.802;2023-05-14T00:56:49;13.20;99.90
2577;DHT22;1298;51.252;6.802;2023-05-14T00:59:34;13.10;99.90
2577;DHT22;1298;51.252;6.802;2023-05-14T01:02:20;13.10;99.90
2577;DHT22;1298;51.252;6.802;2023-05-14T01:05:05;13.00;99.90
2577;DHT22;1298;51.252;6.802;2023-05-14T01:07:54;12.90;99.90
2577;DHT22;1298;51.252;6.802;2023-05-14T01:10:44;12.80;99.90
2577;DHT22;1298;51.252;6.802;2023-05-14T01:13:36;12.80;99.90
2577;DHT22;1298;51.252;6.802;2023-05-14T01:16:23;12.70;99.90
2577;DHT22;1298;51.252;6.802;2023-05-14T01:19:15;12.70;99.90
2577;DHT22;1298;51.252;6.802;2023-05-14T01:22:04;12.60;99.90
2577;DHT22;1298;51.252;6.802;2023-05-14T01:24:49;12.50;99.90
2577;DHT22;1298;51.252;6.802;2023-05-14T01:27:34;12.40;99.90
2577;DHT22;1298;51.252;6.802;2023-05-14T01:30:20;12.30;99.90
2577;DHT22;1298;51.252;6.802;2023-05-14T01:33:08;12.30;99.90
2577;DHT22;1298;51.252;6.802;2023-05-14T01:35:53;12.20;99.90
2577;DHT22;1298;51.252;6.802;2023-05-14T01:38:40;12.20;99.90
2577;DHT22;1298;51.252;6.802;2023-05-14T01:41:28;12.10;99.90
2577;DHT22;1298;51.252;6.802;2023-05-14T01:44:14;12.00;99.90
2577;DHT22;1298;51.252;6.802;2023-05-14T01:46:59;12.00;99.90
2577;DHT22;1298;51.252;6.802;2023-05-14T01:49:44;11.90;99.90
2577;DHT22;1298;51.252;6.802;2023-05-14T01:52:29;11.80;99.90
2577;DHT22;1298;51.252;6.802;2023-05-14T01:55:15;11.80;99.90
2577;DHT22;1298;51.252;6.802;2023-05-14T01:58:01;11.80;99.90
2577;DHT22;1298;51.252;6.802;2023-05-14T02:00:46;11.80;99.90
2577;DHT22;1298;51.252;6.802;2023-05-14T02:03:31;11.70;99.90
2577;DHT22;1298;51.252;6.802;2023-05-14T02:06:16;11.70;99.90
2577;DHT22;1298;51.252;6.802;2023-05-14T02:09:03;11.70;99.90
2577;DHT22;1298;51.252;6.802;2023-05-14T02:11:50;11.60;99.90
2577;DHT22;1298;51.252;6.802;2023-05-14T02:14:35;11.60;99.90
2577;DHT22;1298;51.252;6.802;2023-05-14T02:17:20;11.50;99.90
2577;DHT22;1298;51.252;6.802;2023-05-14T02:20:06;11.50;99.90
2577;DHT22;1298;51.252;6.802;2023-05-14T02:22:52;11.50;99.90
2577;DHT22;1298;51.252;6.802;2023-05-14T02:25:37;11.40;99.90
2577;DHT22;1298;51.252;6.802;2023-05-14T02:28:24;11.40;99.90
2577;DHT22;1298;51.252;6.802;2023-05-14T02:31:09;11.40;99.90
2577;DHT22;1298;51.252;6.802;2023-05-14T02:33:54;11.30;99.90
2577;DHT22;1298;51.252;6.802;2023-05-14T02:36:39;11.30;99.90
2577;DHT22;1298;51.252;6.802;2023-05-14T02:39:24;11.20;99.90
2577;DHT22;1298;51.252;6.802;2023-05-14T02:42:09;11.20;99.90
2577;DHT22;1298;51.252;6.802;2023-05-14T02:44:56;11.20;99.90
2577;DHT22;1298;51.252;6.802;2023-05-14T02:47:41;11.10;99.90
2577;DHT22;1298;51.252;6.802;2023-05-14T02:50:26;11.00;99.90
2577;DHT22;1298;51.252;6.802;2023-05-14T02:53:11;11.00;99.90
2577;DHT22;1298;51.252;6.802;2023-05-14T02:55:57;11.00;99.90
2577;DHT22;1298;51.252;6.802;2023-05-14T02:58:42;11.00;99.90
2577;DHT22;1298;51.252;6.802;2023-05-14T03:01:28;10.90;99.90
2577;DHT22;1298;51.252;6.802;2023-05-14T03:04:13;10.90;99.90
2577;DHT22;1298;51.252;6.802;2023-05-14T03:06:58;10.80;99.90
2577;DHT22;1298;51.252;6.802;2023-05-14T03:09:43;10.70;99.90
2577;DHT22;1298;51.252;6.802;2023-05-14T03:12:28;10.70;99.90
2577;DHT22;1298;51.252;6.802;2023-05-14T03:15:13;10.60;99.90
2577;DHT22;1298;51.252;6.802;2023-05-14T03:18:00;10.60;99.90
2577;DHT22;1298;51.252;6.802;2023-05-14T03:20:45;10.60;99.90
2577;DHT22;1298;51.252;6.802;2023-05-14T03:23:30;10.60;99.90
2577;DHT22;1298;51.252;6.802;2023-05-14T03:26:17;10.60;99.90
2577;DHT22;1298;51.252;6.802;2023-05-14T03:29:04;10.60;99.90
2577;DHT22;1298;51.252;6.802;2023-05-14T03:31:49;10.60;99.90
2577;DHT22;1298;51.252;6.802;2023-05-14T03:34:36;10.60;99.90
2577;DHT22;1298;51.252;6.802;2023-05-14T03:37:21;10.60;99.90
2577;DHT22;1298;51.252;6.802;2023-05-14T03:40:06;10.60;99.90
2577;DHT22;1298;51.252;6.802;2023-05-14T03:42:52;10.60;99.90
2577;DHT22;1298;51.252;6.802;2023-05-14T03:45:37;10.50;99.90
2577;DHT22;1298;51.252;6.802;2023-05-14T03:48:22;10.50;99.90
2577;DHT22;1298;51.252;6.802;2023-05-14T03:51:09;10.50;99.90
2577;DHT22;1298;51.252;6.802;2023-05-14T03:53:54;10.50;99.90
2577;DHT22;1298;51.252;6.802;2023-05-14T03:56:41;10.50;99.90
2577;DHT22;1298;51.252;6.802;2023-05-14T03:59:26;10.40;99.90
2577;DHT22;1298;51.252;6.802;2023-05-14T04:02:11;10.40;99.90
2577;DHT22;1298;51.252;6.802;2023-05-14T04:04:56;10.40;99.90
2577;DHT22;1298;51.252;6.802;2023-05-14T04:07:43;10.40;99.90
2577;DHT22;1298;51.252;6.802;2023-05-14T04:10:29;10.40;99.90
2577;DHT22;1298;51.252;6.802;2023-05-14T04:13:15;10.50;99.90
2577;DHT22;1298;51.252;6.802;2023-05-14T04:16:00;10.40;99.90
2577;DHT22;1298;51.252;6.802;2023-05-14T04:18:45;10.40;99.90
2577;DHT22;1298;51.252;6.802;2023-05-14T04:21:31;10.40;99.90
2577;DHT22;1298;51.252;6.802;2023-05-14T04:24:17;10.50;99.90
2577;DHT22;1298;51.252;6.802;2023-05-14T04:27:02;10.40;99.90
2577;DHT22;1298;51.252;6.802;2023-05-14T04:29:48;10.50;99.90
2577;DHT22;1298;51.252;6.802;2023-05-14T04:32:34;10.60;99.90
2577;DHT22;1298;51.252;6.802;2023-05-14T04:35:19;10.70;99.90
2577;DHT22;1298;51.252;6.802;2023-05-14T04:38:04;10.90;99.90
2577;DHT22;1298;51.252;6.802;2023-05-14T04:40:50;10.90;99.90
2577;DHT22;1298;51.252;6.802;2023-05-14T04:43:35;10.90;99.90
2577;DHT22;1298;51.252;6.802;2023-05-14T04:46:20;10.90;99.90
2577;DHT22;1298;51.252;6.802;2023-05-14T04:49:05;11.00;99.90
2577;DHT22;1298;51.252;6.802;2023-05-14T04:51:51;11.00;99.90
2577;DHT22;1298;51.252;6.802;2023-05-14T04:54:36;11.10;99.90
2577;DHT22;1298;51.252;6.802;2023-05-14T04:57:23;11.10;99.90
2577;DHT22;1298;51.252;6.802;2023-05-14T05:00:09;11.30;99.90
2577;DHT22;1298;51.252;6.802;2023-05-14T05:02:54;11.30;99.90
2577;DHT22;1298;51.252;6.802;2023-05-14T05:05:39;11.40;99.90
2577;DHT22;1298;51.252;6.802;2023-05-14T05:08:25;11.50;99.90
2577;DHT22;1298;51.252;6.802;2023-05-14T05:11:10;11.60;99.90
2577;DHT22;1298;51.252;6.802;2023-05-14T05:13:56;11.70;99.90
2577;DHT22;1298;51.252;6.802;2023-05-14T05:16:41;11.80;99.90
2577;DHT22;1298;51.252;6.802;2023-05-14T05:19:28;11.80;99.90
2577;DHT22;1298;51.252;6.802;2023-05-14T05:22:13;11.90;99.90
2577;DHT22;1298;51.252;6.802;2023-05-14T05:24:58;11.90;99.90
2577;DHT22;1298;51.252;6.802;2023-05-14T05:27:43;11.90;99.90
2577;DHT22;1298;51.252;6.802;2023-05-14T05:30:30;11.80;99.90
2577;DHT22;1298;51.252;6.802;2023-05-14T05:33:15;11.90;99.90
2577;DHT22;1298;51.252;6.802;2023-05-14T05:36:00;11.90;99.90
2577;DHT22;1298;51.252;6.802;2023-05-14T05:38:45;12.00;99.90
2577;DHT22;1298;51.252;6.802;2023-05-14T05:41:30;12.00;99.90
2577;DHT22;1298;51.252;6.802;2023-05-14T05:44:16;12.20;99.90
2577;DHT22;1298;51.252;6.802;2023-05-14T05:47:02;12.20;99.90
2577;DHT22;1298;51.252;6.802;2023-05-14T05:49:48;12.20;99.90
2577;DHT22;1298;51.252;6.802;2023-05-14T05:52:33;12.40;99.90
2577;DHT22;1298;51.252;6.802;2023-05-14T05:55:19;12.50;99.90
2577;DHT22;1298;51.252;6.802;2023-05-14T05:58:04;12.50;99.90
2577;DHT22;1298;51.252;6.802;2023-05-14T06:00:49;12.50;99.90
2577;DHT22;1298;51.252;6.802;2023-05-14T06:03:36;12.50;99.90
2577;DHT22;1298;51.252;6.802;2023-05-14T06:06:21;12.70;99.90
2577;DHT22;1298;51.252;6.802;2023-05-14T06:09:06;12.70;99.90
2577;DHT22;1298;51.252;6.802;2023-05-14T06:11:52;12.80;99.90
2577;DHT22;1298;51.252;6.802;2023-05-14T06:14:36;12.90;99.90
2577;DHT22;1298;51.252;6.802;2023-05-14T06:17:22;13.00;99.90
2577;DHT22;1298;51.252;6.802;2023-05-14T06:20:09;13.10;99.90
2577;DHT22;1298;51.252;6.802;2023-05-14T06:22:54;13.30;99.90
2577;DHT22;1298;51.252;6.802;2023-05-14T06:25:39;13.40;99.90
2577;DHT22;1298;51.252;6.802;2023-05-14T06:28:24;13.50;99.90
2577;DHT22;1298;51.252;6.802;2023-05-14T06:31:10;13.70;99.90
2577;DHT22;1298;51.252;6.802;2023-05-14T06:33:55;13.80;99.90
2577;DHT22;1298;51.252;6.802;2023-05-14T06:36:41;13.90;99.90
2577;DHT22;1298;51.252;6.802;2023-05-14T06:39:27;14.00;99.90
2577;DHT22;1298;51.252;6.802;2023-05-14T06:42:12;14.10;99.90
2577;DHT22;1298;51.252;6.802;2023-05-14T06:44:57;14.20;99.90
2577;DHT22;1298;51.252;6.802;2023-05-14T06:47:42;14.30;99.90
2577;DHT22;1298;51.252;6.802;2023-05-14T06:50:27;14.50;99.90
2577;DHT22;1298;51.252;6.802;2023-05-14T06:53:14;14.60;99.90
2577;DHT22;1298;51.252;6.802;2023-05-14T06:55:59;14.60;99.90
2577;DHT22;1298;51.252;6.802;2023-05-14T06:58:44;14.80;99.90
2577;DHT22;1298;51.252;6.802;2023-05-14T07:01:29;14.80;99.90
2577;DHT22;1298;51.252;6.802;2023-05-14T07:04:15;14.90;99.90
2577;DHT22;1298;51.252;6.802;2023-05-14T07:07:00;15.00;99.90
2577;DHT22;1298;51.252;6.802;2023-05-14T07:09:46;15.00;99.90
2577;DHT22;1298;51.252;6.802;2023-05-14T07:12:32;15.00;99.90
2577;DHT22;1298;51.252;6.802;2023-05-14T07:15:17;15.00;99.90
2577;DHT22;1298;51.252;6.802;2023-05-14T07:18:03;15.10;99.90
2577;DHT22;1298;51.252;6.802;2023-05-14T07:20:48;15.20;99.90
2577;DHT22;1298;51.252;6.802;2023-05-14T07:23:33;15.30;99.90
2577;DHT22;1298;51.252;6.802;2023-05-14T07:26:21;15.30;99.90
2577;DHT22;1298;51.252;6.802;2023-05-14T07:29:07;15.50;99.90
2577;DHT22;1298;51.252;6.802;2023-05-14T07:31:52;15.60;99.90
2577;DHT22;1298;51.252;6.802;2023-05-14T07:34:37;15.80;99.90
2577;DHT22;1298;51.252;6.802;2023-05-14T07:37:23;15.90;99.90
2577;DHT22;1298;51.252;6.802;2023-05-14T07:40:09;16.10;99.90
2577;DHT22;1298;51.252;6.802;2023-05-14T07:42:56;16.20;99.90
2577;DHT22;1298;51.252;6.802;2023-05-14T07:45:41;16.40;99.90
2577;DHT22;1298;51.252;6.802;2023-05-14T07:48:26;16.50;99.90
2577;DHT22;1298;51.252;6.802;2023-05-14T07:51:11;16.50;99.90
2577;DHT22;1298;51.252;6.802;2023-05-14T07:53:57;16.60;99.90
2577;DHT22;1298;51.252;6.802;2023-05-14T07:56:43;16.60;99.90
2577;DHT22;1298;51.252;6.802;2023-05-14T07:59:30;16.70;99.90
2577;DHT22;1298;51.252;6.802;2023-05-14T08:02:16;16.80;99.90
2577;DHT22;1298;51.252;6.802;2023-05-14T08:05:01;16.80;99.90
2577;DHT22;1298;51.252;6.802;2023-05-14T08:07:47;17.00;99.90
2577;DHT22;1298;51.252;6.802;2023-05-14T08:10:32;17.10;99.90
2577;DHT22;1298;51.252;6.802;2023-05-14T08:13:17;17.30;99.90
2577;DHT22;1298;51.252;6.802;2023-05-14T08:16:04;17.30;99.90
2577;DHT22;1298;51.252;6.802;2023-05-14T08:18:49;17.30;99.90
2577;DHT22;1298;51.252;6.802;2023-05-14T08:21:35;17.40;99.90
2577;DHT22;1298;51.252;6.802;2023-05-14T08:24:20;17.50;99.90
2577;DHT22;1298;51.252;6.802;2023-05-14T08:27:05;17.70;99.90
2577;DHT22;1298;51.252;6.802;2023-05-14T08:29:50;17.90;99.90
2577;DHT22;1298;51.252;6.802;2023-05-14T08:32:36;17.80;99.90
2577;DHT22;1298;51.252;6.802;2023-05-14T08:35:22;17.80;99.90
2577;DHT22;1298;51.252;6.802;2023-05-14T08:38:07;17.80;99.90
2577;DHT22;1298;51.252;6.802;2023-05-14T08:40:54;17.80;99.90
2577;DHT22;1298;51.252;6.802;2023-05-14T08:43:42;17.90;99.90
2577;DHT22;1298;51.252;6.802;2023-05-14T08:46:29;18.00;99.90
2577;DHT22;1298;51.252;6.802;2023-05-14T08:49:20;18.10;99.90
2577;DHT22;1298;51.252;6.802;2023-05-14T08:52:07;18.10;99.90
2577;DHT22;1298;51.252;6.802;2023-05-14T08:54:52;18.30;99.90
2577;DHT22;1298;51.252;6.802;2023-05-14T08:57:39;18.50;99.90
2577;DHT22;1298;51.252;6.802;2023-05-14T09:00:24;18.50;99.90
2577;DHT22;1298;51.252;6.802;2023-05-14T09:03:10;18.60;99.90
2577;DHT22;1298;51.252;6.802;2023-05-14T09:05:57;18.70;99.90
2577;DHT22;1298;51.252;6.802;2023-05-14T09:08:45;18.60;99.90
2577;DHT22;1298;51.252;6.802;2023-05-14T09:11:31;18.70;99.90
2577;DHT22;1298;51.252;6.802;2023-05-14T09:14:16;18.70;99.90
2577;DHT22;1298;51.252;6.802;2023-05-14T09:17:02;18.80;99.90
2577;DHT22;1298;51.252;6.802;2023-05-14T09:19:49;18.80;99.90
2577;DHT22;1298;51.252;6.802;2023-05-14T09:22:37;18.90;99.90
2577;DHT22;1298;51.252;6.802;2023-05-14T09:25:25;18.90;99.90
2577;DHT22;1298;51.252;6.802;2023-05-14T09:28:10;19.00;99.90
2577;DHT22;1298;51.252;6.802;2023-05-14T09:30:55;19.00;99.90
2577;DHT22;1298;51.252;6.802;2023-05-14T09:33:41;19.20;99.90
2577;DHT22;1298;51.252;6.802;2023-05-14T09:36:26;19.20;99.90
2577;DHT22;1298;51.252;6.802;2023-05-14T09:39:12;19.30;99.90
2577;DHT22;1298;51.252;6.802;2023-05-14T09:41:58;19.40;99.90
2577;DHT22;1298;51.252;6.802;2023-05-14T09:44:44;19.60;99.90
2577;DHT22;1298;51.252;6.802;2023-05-14T09:47:30;19.80;99.90
2577;DHT22;1298;51.252;6.802;2023-05-14T09:50:16;20.10;99.90
2577;DHT22;1298;51.252;6.802;2023-05-14T09:53:01;20.20;99.90
2577;DHT22;1298;51.252;6.802;2023-05-14T09:55:48;20.20;99.90
2577;DHT22;1298;51.252;6.802;2023-05-14T09:58:33;20.30;99.90
2577;DHT22;1298;51.252;6.802;2023-05-14T10:01:18;20.40;99.90
2577;DHT22;1298;51.252;6.802;2023-05-14T10:04:05;20.30;99.90
2577;DHT22;1298;51.252;6.802;2023-05-14T10:06:50;20.30;99.90
2577;DHT22;1298;51.252;6.802;2023-05-14T10:09:36;20.30;99.90
2577;DHT22;1298;51.252;6.802;2023-05-14T10:12:24;20.50;99.90
2577;DHT22;1298;51.252;6.802;2023-05-14T10:15:15;20.50;99.90
2577;DHT22;1298;51.252;6.802;2023-05-14T10:18:02;20.50;99.90
2577;DHT22;1298;51.252;6.802;2023-05-14T10:20:52;20.60;99.90
2577;DHT22;1298;51.252;6.802;2023-05-14T10:23:41;20.60;99.90
2577;DHT22;1298;51.252;6.802;2023-05-14T10:26:26;20.80;99.90
2577;DHT22;1298;51.252;6.802;2023-05-14T10:29:13;21.00;99.90
2577;DHT22;1298;51.252;6.802;2023-05-14T10:32:00;21.20;99.90
2577;DHT22;1298;51.252;6.802;2023-05-14T10:34:47;21.40;99.90
2577;DHT22;1298;51.252;6.802;2023-05-14T10:37:33;21.60;99.90
2577;DHT22;1298;51.252;6.802;2023-05-14T10:40:18;21.80;99.90
2577;DHT22;1298;51.252;6.802;2023-05-14T10:43:06;22.10;99.90
2577;DHT22;1298;51.252;6.802;2023-05-14T10:45:53;22.00;99.90
2577;DHT22;1298;51.252;6.802;2023-05-14T10:48:40;21.80;99.90
2577;DHT22;1298;51.252;6.802;2023-05-14T10:51:26;21.70;99.90
2577;DHT22;1298;51.252;6.802;2023-05-14T10:54:11;21.70;99.90
2577;DHT22;1298;51.252;6.802;2023-05-14T10:56:57;21.60;99.90
2577;DHT22;1298;51.252;6.802;2023-05-14T10:59:42;21.50;99.90
2577;DHT22;1298;51.252;6.802;2023-05-14T11:02:29;21.40;99.90
2577;DHT22;1298;51.252;6.802;2023-05-14T11:05:15;21.30;99.90
2577;DHT22;1298;51.252;6.802;2023-05-14T11:08:01;21.30;99.90
2577;DHT22;1298;51.252;6.802;2023-05-14T11:10:48;21.30;99.90
2577;DHT22;1298;51.252;6.802;2023-05-14T11:13:34;21.20;99.90
2577;DHT22;1298;51.252;6.802;2023-05-14T11:16:19;21.30;99.90
2577;DHT22;1298;51.252;6.802;2023-05-14T11:19:08;21.30;99.90
2577;DHT22;1298;51.252;6.802;2023-05-14T11:21:54;21.40;99.90
2577;DHT22;1298;51.252;6.802;2023-05-14T11:24:40;21.70;99.90
2577;DHT22;1298;51.252;6.802;2023-05-14T11:27:25;21.90;99.90
2577;DHT22;1298;51.252;6.802;2023-05-14T11:30:12;21.90;99.90
2577;DHT22;1298;51.252;6.802;2023-05-14T11:32:57;22.00;99.90
2577;DHT22;1298;51.252;6.802;2023-05-14T11:35:43;22.00;99.90
2577;DHT22;1298;51.252;6.802;2023-05-14T11:38:29;22.00;99.90
2577;DHT22;1298;51.252;6.802;2023-05-14T11:41:14;21.90;99.90
2577;DHT22;1298;51.252;6.802;2023-05-14T11:43:59;22.00;99.90
2577;DHT22;1298;51.252;6.802;2023-05-14T11:46:52;22.20;99.90
2577;DHT22;1298;51.252;6.802;2023-05-14T11:49:37;22.20;99.90
2577;DHT22;1298;51.252;6.802;2023-05-14T11:52:24;22.40;99.90
2577;DHT22;1298;51.252;6.802;2023-05-14T11:55:09;22.60;99.90
2577;DHT22;1298;51.252;6.802;2023-05-14T11:57:54;23.00;99.90
2577;DHT22;1298;51.252;6.802;2023-05-14T12:00:40;23.10;99.90
2577;DHT22;1298;51.252;6.802;2023-05-14T12:03:25;23.10;99.90
2577;DHT22;1298;51.252;6.802;2023-05-14T12:06:12;23.40;99.90
2577;DHT22;1298;51.252;6.802;2023-05-14T12:08:59;23.30;99.90
2577;DHT22;1298;51.252;6.802;2023-05-14T12:11:44;23.50;99.90
2577;DHT22;1298;51.252;6.802;2023-05-14T12:14:30;23.60;99.90
2577;DHT22;1298;51.252;6.802;2023-05-14T12:17:21;23.70;99.90
2577;DHT22;1298;51.252;6.802;2023-05-14T12:20:07;23.70;99.90
2577;DHT22;1298;51.252;6.802;2023-05-14T12:22:53;23.90;99.90
2577;DHT22;1298;51.252;6.802;2023-05-14T12:25:40;24.20;99.90
2577;DHT22;1298;51.252;6.802;2023-05-14T12:28:33;24.00;99.90
2577;DHT22;1298;51.252;6.802;2023-05-14T12:31:26;23.90;99.90
2577;DHT22;1298;51.252;6.802;2023-05-14T12:34:11;23.90;99.90
2577;DHT22;1298;51.252;6.802;2023-05-14T12:36:57;23.80;99.90
2577;DHT22;1298;51.252;6.802;2023-05-14T12:39:42;23.90;99.90
2577;DHT22;1298;51.252;6.802;2023-05-14T12:42:28;24.00;99.90
2577;DHT22;1298;51.252;6.802;2023-05-14T12:45:13;24.00;99.90
2577;DHT22;1298;51.252;6.802;2023-05-14T12:47:59;24.40;99.90
2577;DHT22;1298;51.252;6.802;2023-05-14T12:50:44;24.50;99.90
2577;DHT22;1298;51.252;6.802;2023-05-14T12:53:32;25.10;99.90
2577;DHT22;1298;51.252;6.802;2023-05-14T12:56:17;26.00;99.90
2577;DHT22;1298;51.252;6.802;2023-05-14T12:59:03;26.40;99.90
2577;DHT22;1298;51.252;6.802;2023-05-14T13:01:49;25.90;99.90
2577;DHT22;1298;51.252;6.802;2023-05-14T13:04:34;25.80;99.90
2577;DHT22;1298;51.252;6.802;2023-05-14T13:07:20;26.00;99.90
2577;DHT22;1298;51.252;6.802;2023-05-14T13:10:06;26.00;99.90
2577;DHT22;1298;51.252;6.802;2023-05-14T13:12:51;26.40;99.90
2577;DHT22;1298;51.252;6.802;2023-05-14T13:15:37;26.90;99.90
2577;DHT22;1298;51.252;6.802;2023-05-14T13:18:23;27.10;99.90
2577;DHT22;1298;51.252;6.802;2023-05-14T13:21:09;27.40;99.90
2577;DHT22;1298;51.252;6.802;2023-05-14T13:23:55;27.20;99.90
2577;DHT22;1298;51.252;6.802;2023-05-14T13:26:40;27.70;99.90
2577;DHT22;1298;51.252;6.802;2023-05-14T13:29:27;28.50;99.90
2577;DHT22;1298;51.252;6.802;2023-05-14T13:32:15;28.60;99.90
2577;DHT22;1298;51.252;6.802;2023-05-14T13:35:00;29.00;99.90
2577;DHT22;1298;51.252;6.802;2023-05-14T13:37:46;28.20;99.90
2577;DHT22;1298;51.252;6.802;2023-05-14T13:40:31;27.10;99.90
2577;DHT22;1298;51.252;6.802;2023-05-14T13:43:16;26.60;99.90
2577;DHT22;1298;51.252;6.802;2023-05-14T13:46:02;26.20;99.90
2577;DHT22;1298;51.252;6.802;2023-05-14T13:48:49;25.80;99.90
2577;DHT22;1298;51.252;6.802;2023-05-14T13:51:34;25.80;99.90
2577;DHT22;1298;51.252;6.802;2023-05-14T13:54:19;25.20;99.90
2577;DHT22;1298;51.252;6.802;2023-05-14T13:57:04;25.90;99.90
2577;DHT22;1298;51.252;6.802;2023-05-14T13:59:49;26.40;99.90
2577;DHT22;1298;51.252;6.802;2023-05-14T14:02:34;26.30;99.90
2577;DHT22;1298;51.252;6.802;2023-05-14T14:05:21;25.80;99.90
2577;DHT22;1298;51.252;6.802;2023-05-14T14:08:08;26.00;99.90
2577;DHT22;1298;51.252;6.802;2023-05-14T14:10:53;25.90;99.90
2577;DHT22;1298;51.252;6.802;2023-05-14T14:13:39;26.80;99.90
2577;DHT22;1298;51.252;6.802;2023-05-14T14:16:24;27.90;99.90
2577;DHT22;1298;51.252;6.802;2023-05-14T14:19:09;28.50;99.90
2577;DHT22;1298;51.252;6.802;2023-05-14T14:21:56;28.70;99.90
2577;DHT22;1298;51.252;6.802;2023-05-14T14:24:41;28.90;99.90
2577;DHT22;1298;51.252;6.802;2023-05-14T14:27:27;29.50;99.90
2577;DHT22;1298;51.252;6.802;2023-05-14T14:30:13;30.10;99.90
2577;DHT22;1298;51.252;6.802;2023-05-14T14:32:59;30.50;99.90
2577;DHT22;1298;51.252;6.802;2023-05-14T14:35:44;30.50;99.90
2577;DHT22;1298;51.252;6.802;2023-05-14T14:38:31;30.30;99.90
2577;DHT22;1298;51.252;6.802;2023-05-14T14:41:16;30.10;99.90
2577;DHT22;1298;51.252;6.802;2023-05-14T14:44:01;30.30;99.90
2577;DHT22;1298;51.252;6.802;2023-05-14T14:46:46;30.10;99.90
2577;DHT22;1298;51.252;6.802;2023-05-14T14:49:32;30.10;99.90
2577;DHT22;1298;51.252;6.802;2023-05-14T14:52:17;30.50;99.90
2577;DHT22;1298;51.252;6.802;2023-05-14T14:55:04;30.70;99.90
2577;DHT22;1298;51.252;6.802;2023-05-14T14:57:50;30.60;99.90
2577;DHT22;1298;51.252;6.802;2023-05-14T15:00:35;30.70;99.90
2577;DHT22;1298;51.252;6.802;2023-05-14T15:03:21;30.60;99.90
2577;DHT22;1298;51.252;6.802;2023-05-14T15:06:06;30.20;99.90
2577;DHT22;1298;51.252;6.802;2023-05-14T15:08:52;29.60;99.90
2577;DHT22;1298;51.252;6.802;2023-05-14T15:11:38;28.80;99.90
2577;DHT22;1298;51.252;6.802;2023-05-14T15:14:24;27.70;99.90
2577;DHT22;1298;51.252;6.802;2023-05-14T15:17:12;27.30;99.90
2577;DHT22;1298;51.252;6.802;2023-05-14T15:19:57;27.10;99.90
2577;DHT22;1298;51.252;6.802;2023-05-14T15:22:43;26.70;99.90
2577;DHT22;1298;51.252;6.802;2023-05-14T15:25:28;26.40;99.90
2577;DHT22;1298;51.252;6.802;2023-05-14T15:28:14;26.00;99.90
2577;DHT22;1298;51.252;6.802;2023-05-14T15:31:00;25.80;99.90
2577;DHT22;1298;51.252;6.802;2023-05-14T15:33:46;25.70;99.90
2577;DHT22;1298;51.252;6.802;2023-05-14T15:36:31;25.50;99.90
2577;DHT22;1298;51.252;6.802;2023-05-14T15:39:16;25.50;99.90
2577;DHT22;1298;51.252;6.802;2023-05-14T15:42:01;25.60;99.90
2577;DHT22;1298;51.252;6.802;2023-05-14T15:44:48;25.80;99.90
2577;DHT22;1298;51.252;6.802;2023-05-14T15:47:34;25.90;99.90
2577;DHT22;1298;51.252;6.802;2023-05-14T15:50:19;26.20;99.90
2577;DHT22;1298;51.252;6.802;2023-05-14T15:53:04;26.40;99.90
2577;DHT22;1298;51.252;6.802;2023-05-14T15:55:49;26.20;99.90
2577;DHT22;1298;51.252;6.802;2023-05-14T15:58:34;25.30;99.90
2577;DHT22;1298;51.252;6.802;2023-05-14T16:01:21;24.80;99.90
2577;DHT22;1298;51.252;6.802;2023-05-14T16:04:06;24.00;99.90
2577;DHT22;1298;51.252;6.802;2023-05-14T16:06:51;23.70;99.90
2577;DHT22;1298;51.252;6.802;2023-05-14T16:09:36;23.40;99.90
2577;DHT22;1298;51.252;6.802;2023-05-14T16:12:22;23.10;99.90
2577;DHT22;1298;51.252;6.802;2023-05-14T16:15:07;22.90;99.90
2577;DHT22;1298;51.252;6.802;2023-05-14T16:17:54;22.90;99.90
2577;DHT22;1298;51.252;6.802;2023-05-14T16:20:39;22.80;99.90
2577;DHT22;1298;51.252;6.802;2023-05-14T16:23:24;22.80;99.90
2577;DHT22;1298;51.252;6.802;2023-05-14T16:26:10;22.90;99.90
2577;DHT22;1298;51.252;6.802;2023-05-14T16:28:55;22.90;99.90
2577;DHT22;1298;51.252;6.802;2023-05-14T16:31:40;22.80;99.90
2577;DHT22;1298;51.252;6.802;2023-05-14T16:34:27;22.60;99.90
2577;DHT22;1298;51.252;6.802;2023-05-14T16:37:13;22.70;99.90
2577;DHT22;1298;51.252;6.802;2023-05-14T16:39:58;22.80;99.90
2577;DHT22;1298;51.252;6.802;2023-05-14T16:42:43;22.80;99.90
2577;DHT22;1298;51.252;6.802;2023-05-14T16:45:28;22.60;99.90
2577;DHT22;1298;51.252;6.802;2023-05-14T16:48:15;22.70;99.90
2577;DHT22;1298;51.252;6.802;2023-05-14T16:51:03;22.50;99.90
2577;DHT22;1298;51.252;6.802;2023-05-14T16:53:48;22.80;99.90
2577;DHT22;1298;51.252;6.802;2023-05-14T16:56:33;23.30;99.90
2577;DHT22;1298;51.252;6.802;2023-05-14T16:59:18;23.40;99.90
2577;DHT22;1298;51.252;6.802;2023-05-14T17:02:03;23.10;99.90
2577;DHT22;1298;51.252;6.802;2023-05-14T17:04:48;22.70;99.90
2577;DHT22;1298;51.252;6.802;2023-05-14T17:07:35;22.80;99.90
2577;DHT22;1298;51.252;6.802;2023-05-14T17:10:20;22.90;99.90
2577;DHT22;1298;51.252;6.802;2023-05-14T17:13:06;23.10;99.90
2577;DHT22;1298;51.252;6.802;2023-05-14T17:15:52;23.30;99.90
2577;DHT22;1298;51.252;6.802;2023-05-14T17:18:37;23.50;99.90
2577;DHT22;1298;51.252;6.802;2023-05-14T17:21:22;23.30;99.90
2577;DHT22;1298;51.252;6.802;2023-05-14T17:24:09;22.90;99.90
2577;DHT22;1298;51.252;6.802;2023-05-14T17:26:54;22.70;99.90
2577;DHT22;1298;51.252;6.802;2023-05-14T17:29:39;22.60;99.90
2577;DHT22;1298;51.252;6.802;2023-05-14T17:32:24;22.30;99.90
2577;DHT22;1298;51.252;6.802;2023-05-14T17:35:09;22.00;99.90
2577;DHT22;1298;51.252;6.802;2023-05-14T17:37:54;22.10;99.90
2577;DHT22;1298;51.252;6.802;2023-05-14T17:40:41;22.10;99.90
2577;DHT22;1298;51.252;6.802;2023-05-14T17:43:26;21.90;99.90
2577;DHT22;1298;51.252;6.802;2023-05-14T17:46:11;21.70;99.90
2577;DHT22;1298;51.252;6.802;2023-05-14T17:48:56;21.50;99.90
2577;DHT22;1298;51.252;6.802;2023-05-14T17:51:42;21.30;99.90
2577;DHT22;1298;51.252;6.802;2023-05-14T17:54:27;21.20;99.90
2577;DHT22;1298;51.252;6.802;2023-05-14T17:57:13;21.10;99.90
2577;DHT22;1298;51.252;6.802;2023-05-14T17:59:58;20.90;99.90
2577;DHT22;1298;51.252;6.802;2023-05-14T18:02:44;20.80;99.90